Energy, IL (62933)

10:47 PM CST on December 27, 2014 (GMT -0600)
Prairie Road | Change Station
CLOSE
Current Station
Personal Weather Station
Location: Carterville, IL
Elevation: 436 ft
Nearby Weather Stations

Elev 436 ft 37.76 °N, 89.11 °W | Updated 7 minutes ago

Overcast
Overcast
37.0 °F
Feels Like 34 °F
N
3.7
Wind Variable Wind from North

Today
High -- | Low -- °F
--% Chance of Precip.
Yesterday
High -- | Low -- °F
Precip. -- in
7:10 AM 4:44 PM
Waxing Crescent, 43% visible
Pressure 30.18 in
Visibility 10.0 miles
Clouds Mostly Cloudy 900 ft
Overcast 1600 ft
Windchill 34 °F
Dew Point 35 °F
Humidity 93%
Rainfall 0.37 in
Snow Depth Not available.
UV 0 out of 12
Pollen .80 out of 12
Air Quality Not available.
Flu Activity Not available.
METAR KMWA 280435Z AUTO 33006KT 10SM BKN009 OVC016 03/02 A3018 RMK AO2

More Conditions Fewer Conditions

Pressure 30.18 in
Visibility 10.0 miles
Clouds Mostly Cloudy 900 ft
Overcast 1600 ft
Windchill 34 °F
Dew Point 35 °F
Humidity 93%
Rainfall 0.37 in
Snow Depth Not available.
UV 0 out of 12
Pollen .80 out of 12
Air Quality Not available.
Flu Activity Not available.
METAR KMWA 280435Z AUTO 33006KT 10SM BKN009 OVC016 03/02 A3018 RMK AO2

More Conditions Fewer Conditions

10-Day Weather Forecast

Almanac

Astronomy

Dec. 27, 2014 Rise Set
Actual Time
Civil Twilight
Nautical Twilight
Astronomical Twilight
Moon
Length of Visible Light
Length of Day
Tomorrow will be .
, % of the Moon is Illuminated

Today's Extremes

State Highs State Lows

Community

WunderPhotos

Upload Photos

1,781,196 photos uploaded!

WunderBlogs® & News

Nearby

Air Quality

  Air Quality AQ Index Pollutant
Not available.

Snow Depth

Station Depth Elevation

Earthquake Activity

City Distance Mag. Time & Date
Minimum magnitude displayed is 2.5.

Coastal Water Temperatures

Place Temperature

Nearby Weather Stations